Tamarack, North Carolina
Current Conditions -  °F | °C
As of 12:15 PM on Saturday 25 Oct 2014 (Local Time) from KTNB Reporting Station
Clear Clear  
Wind Chill: 60°   Ceiling: Unl
Heat Index: 60°   Visibility: 10mi
Dew Point: 22°   Wind: 12mph
Humidity: 23%   Direction: 280°W
Pressure: 30.07"   Gusts: 18mph
Location:  36.3248°N, 81.6045°W
Report Text: KTNB 251615Z AUTO 28010G16KT 10SM CLR 15/M06 A3007 RMK AO2 T01531057
Loading
Personal Weather Stations






























Interactive Weather Map
Tropical Storm Tracking
New forecast layout! Learn more

10-Day Weather Forecast

Advertisements
Track Severe Weather on mobile